Kezdőlap
METAR-TAF:

METAR-TAF

Repülőterek :

Odessa-Schlemeyer Field

Odessa, Texas, Amerikai Egyesült Államok

földrajzi szélesség: 31-55-17N, földrajzi hosszúság: 102-23-30W, magasság: 914 m

Jelenlegi meteorológiai megfigyelések

A jelentés 27 perccel ezelõtt készült, 09:53 UTC
Északi szél 4 kt
Hőmérséklet 23°C
Páratartalom 65%
Légköri nyomás 1020 hPa
Látótávolság: 16.1 km
Borult 9000 lábon

METAR: KODO 210953Z AUTO 01004KT 10SM OVC090 23/16 A3011 RMK AO2 SLP143 T02330161

Idő: 05:20 (10:20 UTC)


TAF: hiányzik

Meteorológiai megfigyelések és előrejelzések több, mint 4000 repülőtéren (METAR és TAF jelentéseket).

A térképen piros és sárga pontok jelzik az elérhető meteorológiai állomásokat.

Mozgassa az egeret a pont fölött, hogy megjelenjen az állomás neve.

Azután kattintson az időjárási megfigyelések és előrejelzések megtekintéséhez.

A térkép megváltoztatása: kattintson a fekete keresztel jelölt zöld gombra ráközelítéshez, a vonallal jelölt zöld gombra távolításhoz, vagy a zöld nyilakra a szomszédos térképek eléréséhez.


METAR-TAF: